Etusivu
METAR-TAF:

METAR-TAF

Lentoasemat :

Greenville, Alabama, Yhdysvallat

Leveyspiiri: 31-50-44N, Pituuspiiri: 086-36-38W, korkeus merenpinnasta: 138 m

Tämänhetkinen sää

Tämä raportti tehtiin 16 minuuttia sitten, kello 15.58 UTC
Tuuli 5 kn etelästä/lounaasta
Lämpötila 17°C
Kosteus 82%
Ilmanpaine 1021 hPa
Näkyvyys: 16.1 km
Pilvistä 200 ft:n korkeudessa

METAR: KPRN 261558Z AUTO 20005KT 10SM OVC002 17/14 A3014 RMK AO2 SLP154 T01720144

Aika: 10:14 (16:14 UTC)


TAF: puuttuu

Säähavainnot ja -ennusteet yli 4000 lentoasemalta (METAR- ja TAF-raportit).

Käytössä olevat sääasemat on merkitty karttaan keltaisilla ja punaisilla pisteillä.

Aseta hiiri pisteen päälle nähdäksesi sääaseman nimen.

Klikkaa sitten nähdäksesi säähavainnot ja -ennusteet.

Kartan vaihtaminen: klikkaa mustalla rastilla varustettuja vihreitä pisteitä, niin voit zoomata sisään; viivalla varustettua vihreää pistettä, niin voit zoomata ulos tai vihreitä nuolia, niin pääset viereisille kartoille.


METAR-TAF: